Terminal Aerodrome Forecast
Issued by NWS Louisville, KY

Home | Current Version | Previous Version | Text Only | Print | Product List | Glossary On
Versions: 1 2 3 4 5 6 7 8 9 10 11 12 13 14 15 16 17 18 19
000
FTUS43 KLMK 251100
TAFSDF
TAF
KSDF 251121Z 2512/2618 18006KT P6SM BKN120
     FM251800 18009KT P6SM VCSH BKN050
     FM252000 19008KT 5SM -SHRA BR BKN025
     FM252300 VRB06KT 4SM -SHRA BR BKN009
     FM260600 34014G21KT 4SM -RASN BKN015
     FM260900 33012G18KT P6SM BKN018=

USA.gov is the U.S. government's official web portal to all federal, state and local government web resources and services.